Denizhan Trio — 3FEN7 — position and weather

sailwx.info

Track history (hours):
 
Tides and Currents Weather Stations Pressure Air Temp Water Temp Dewpoint Dewpoint Depression Visibility Wind Speed Wind Dir Waves Ship Positions

Denizhan Trio

Last reported at 2018-Feb-07 21:55 UTC. Time now 2018-Feb-17 20:11 UTC.
Position N 44°27' E 037°31'.
Warning: this ship's position is 9 days out of date.

Length 81 m; draft 3.3 m.

Type: Ship. MMSI: 372261000.

Date/timePositionNaut miles runAvg speedWind from/ knotsBaromVisibWave heightAir tempDewpointWater temp
2018-Feb-07 21:55N 44°27' E 037°31'3 7.0
2018-Feb-07 21:31N 44°29' E 037°35'17 1.4
2018-Feb-07 09:29N 44°44' E 037°47'0 0.0
2018-Feb-07 08:59N 44°44' E 037°47'0 0.0
2018-Feb-07 08:29N 44°44' E 037°47'0 0.0
2018-Feb-07 07:59N 44°44' E 037°47'0 0.0
2018-Feb-07 07:29N 44°44' E 037°47'0 0.0
2018-Feb-07 06:56N 44°44' E 037°47'0 0.0
2018-Feb-07 06:29N 44°44' E 037°47'0 0.0
2018-Feb-07 05:59N 44°44' E 037°47'0 0.0
2018-Feb-07 05:29N 44°44' E 037°47'0 0.0
2018-Feb-07 04:59N 44°44' E 037°47'0 0.0
2018-Feb-07 04:29N 44°44' E 037°47'0 0.0
2018-Feb-07 03:59N 44°44' E 037°47'0 0.0
2018-Feb-07 03:29N 44°44' E 037°47'0 0.0
2018-Feb-07 02:59N 44°44' E 037°47'0 0.0
2018-Feb-07 02:29N 44°44' E 037°47'0 0.0
2018-Feb-07 01:59N 44°44' E 037°47'0 0.0
2018-Feb-07 01:29N 44°44' E 037°47'0 0.0
2018-Feb-07 00:59N 44°44' E 037°47'0 0.0
2018-Feb-07 00:29N 44°44' E 037°47'0 0.0
2018-Feb-06 23:59N 44°44' E 037°47'0 0.0
2018-Feb-06 23:29N 44°44' E 037°47'0 0.0
2018-Feb-06 22:56N 44°44' E 037°47'0 0.0
2018-Feb-06 22:29N 44°44' E 037°47'0 0.0
2018-Feb-06 21:59N 44°44' E 037°47'0 0.0
2018-Feb-06 21:29N 44°44' E 037°47'0 0.0
2018-Feb-06 20:59N 44°44' E 037°47'0 0.0
2018-Feb-06 20:29N 44°44' E 037°47'0 0.0
2018-Feb-06 19:59N 44°44' E 037°47'0 0.0
2018-Feb-06 19:29N 44°44' E 037°47'0 0.0
2018-Feb-06 18:59N 44°44' E 037°47'0 0.0
2018-Feb-06 18:29N 44°44' E 037°47'0 0.0
2018-Feb-06 17:59N 44°44' E 037°47'0 0.0
2018-Feb-06 17:29N 44°44' E 037°47'0 0.0
2018-Feb-06 16:59N 44°44' E 037°47'0 0.0
2018-Feb-06 16:29N 44°44' E 037°47'0 0.0
2018-Feb-06 15:59N 44°44' E 037°47'0 0.0
2018-Feb-06 15:26N 44°44' E 037°47'0 0.0
2018-Feb-06 14:59N 44°44' E 037°47'0 0.0
2018-Feb-06 14:29N 44°44' E 037°47'0 0.0
2018-Feb-06 13:59N 44°44' E 037°47'0 0.0
2018-Feb-06 13:29N 44°44' E 037°47'0 0.0
2018-Feb-06 12:59N 44°44' E 037°47'0 0.0
2018-Feb-06 12:29N 44°44' E 037°47'0 0.0
2018-Feb-06 11:59N 44°44' E 037°47'0 0.8
2018-Feb-06 11:30N 44°43' E 037°47'3 6.7
2018-Feb-06 11:00N 44°41' E 037°50'4 7.1
2018-Feb-06 10:30N 44°38' E 037°52'4 7.2
2018-Feb-06 10:00N 44°35' E 037°48'4 7.3
2018-Feb-06 09:30N 44°33' E 037°44'4 7.1
2018-Feb-06 09:00N 44°31' E 037°40'4 7.1
2018-Feb-06 08:28N 44°29' E 037°35'  
2018-Feb-02 18:33N 40°52' E 029°02'0 6.1
2018-Feb-02 18:30N 40°51' E 029°02'3 6.2
2018-Feb-02 18:00N 40°49' E 029°05'3 5.5
2018-Feb-02 17:30N 40°50' E 029°09'3 6.7
2018-Feb-02 17:00N 40°52' E 029°11'0 0.4
2018-Feb-02 16:26N 40°53' E 029°11'0 0.0
2018-Feb-02 15:19N 40°53' E 029°11'0 0.0
2018-Feb-02 14:25N 40°53' E 029°11'0 0.0
2018-Feb-02 13:43N 40°53' E 029°11'0 0.0
2018-Feb-02 13:25N 40°53' E 029°11'0 0.0
2018-Feb-02 12:37N 40°53' E 029°11'0 0.1
2018-Feb-02 12:25N 40°53' E 029°11'0 0.0
2018-Feb-02 11:49N 40°53' E 029°11'0 0.0
2018-Feb-02 11:25N 40°53' E 029°11'0 0.0
2018-Feb-02 10:49N 40°53' E 029°11'0 0.0
2018-Feb-02 10:25N 40°53' E 029°11'0 0.0
2018-Feb-02 09:55N 40°53' E 029°11'0 0.0
2018-Feb-02 09:13N 40°53' E 029°11'0 0.0
2018-Feb-02 08:55N 40°53' E 029°11'0 0.0
2018-Feb-02 08:15N 40°53' E 029°11'0 0.0
2018-Feb-02 07:57N 40°53' E 029°11'0 0.0
2018-Feb-02 07:21N 40°53' E 029°11'0 0.0
2018-Feb-02 06:34N 40°53' E 029°11'0 0.0
2018-Feb-02 06:10N 40°53' E 029°11'0 0.0
2018-Feb-02 05:46N 40°53' E 029°11'0 0.0
2018-Feb-02 05:28N 40°53' E 029°11'0 0.0
2018-Feb-02 04:58N 40°53' E 029°11'0 0.0
2018-Feb-02 04:28N 40°53' E 029°11'0 0.0
2018-Feb-02 03:52N 40°53' E 029°11'0 0.0
2018-Feb-02 03:28N 40°53' E 029°11'0 0.0
2018-Feb-02 02:58N 40°53' E 029°11'0 0.0
2018-Feb-02 02:28N 40°53' E 029°11'0 0.0
2018-Feb-02 01:40N 40°53' E 029°11'0 0.1
2018-Feb-02 01:28N 40°53' E 029°11'0 0.0
2018-Feb-02 00:52N 40°53' E 029°11'0 0.7
2018-Feb-02 00:30N 40°52' E 029°11'3 5.5
2018-Feb-02 00:00N 40°50' E 029°11'4 6.8
2018-Feb-01 23:30N 40°47' E 029°14'4 7.4
2018-Feb-01 22:59N 40°45' E 029°19'  
2018-Jan-30 13:29N 40°43' E 029°21'4 7.2
2018-Jan-30 12:59N 40°45' E 029°16'3 7.0
2018-Jan-30 12:30N 40°46' E 029°12'4 6.6
2018-Jan-30 11:55N 40°48' E 029°08'4 5.6
2018-Jan-30 11:15N 40°49' E 029°03'4 5.7
2018-Jan-30 10:30N 40°51' E 028°58'197 5.8
2018-Jan-29 00:36N 44°06' E 029°39'3 6.6
2018-Jan-29 00:12N 44°09' E 029°39'1 6.6
2018-Jan-29 00:00N 44°10' E 029°39'3 6.5
2018-Jan-28 23:30N 44°13' E 029°40'5 6.4
2018-Jan-28 22:43N 44°18' E 029°42'3 6.5
2018-Jan-28 22:19N 44°21' E 029°42'2 6.5
2018-Jan-28 21:57N 44°23' E 029°43'  
Track history (hours):
 
Tides and Currents Weather Stations Pressure Air Temp Water Temp Dewpoint Dewpoint Depression Visibility Wind Speed Wind Dir Waves Ship Positions

Denizhan Trio

Last reported at 2018-Feb-07 21:55 UTC. Time now 2018-Feb-17 20:11 UTC.
Position N 44°27' E 037°31'.
Warning: this ship's position is 9 days out of date.

Length 81 m; draft 3.3 m.

Type: Ship. MMSI: 372261000.

Date/timePositionNaut miles runAvg speedWind from/ knotsBaromVisibWave heightAir tempDewpointWater temp
2018-Feb-07 21:55N 44°27' E 037°31'3 7.0
2018-Feb-07 21:31N 44°29' E 037°35'17 1.4
2018-Feb-07 09:29N 44°44' E 037°47'0 0.0
2018-Feb-07 08:59N 44°44' E 037°47'0 0.0
2018-Feb-07 08:29N 44°44' E 037°47'0 0.0
2018-Feb-07 07:59N 44°44' E 037°47'0 0.0
2018-Feb-07 07:29N 44°44' E 037°47'0 0.0
2018-Feb-07 06:56N 44°44' E 037°47'0 0.0
2018-Feb-07 06:29N 44°44' E 037°47'0 0.0
2018-Feb-07 05:59N 44°44' E 037°47'0 0.0
2018-Feb-07 05:29N 44°44' E 037°47'0 0.0
2018-Feb-07 04:59N 44°44' E 037°47'0 0.0
2018-Feb-07 04:29N 44°44' E 037°47'0 0.0
2018-Feb-07 03:59N 44°44' E 037°47'0 0.0
2018-Feb-07 03:29N 44°44' E 037°47'0 0.0
2018-Feb-07 02:59N 44°44' E 037°47'0 0.0
2018-Feb-07 02:29N 44°44' E 037°47'0 0.0
2018-Feb-07 01:59N 44°44' E 037°47'0 0.0
2018-Feb-07 01:29N 44°44' E 037°47'0 0.0
2018-Feb-07 00:59N 44°44' E 037°47'0 0.0
2018-Feb-07 00:29N 44°44' E 037°47'0 0.0
2018-Feb-06 23:59N 44°44' E 037°47'0 0.0
2018-Feb-06 23:29N 44°44' E 037°47'0 0.0
2018-Feb-06 22:56N 44°44' E 037°47'0 0.0
2018-Feb-06 22:29N 44°44' E 037°47'0 0.0
2018-Feb-06 21:59N 44°44' E 037°47'0 0.0
2018-Feb-06 21:29N 44°44' E 037°47'0 0.0
2018-Feb-06 20:59N 44°44' E 037°47'0 0.0
2018-Feb-06 20:29N 44°44' E 037°47'0 0.0
2018-Feb-06 19:59N 44°44' E 037°47'0 0.0
2018-Feb-06 19:29N 44°44' E 037°47'0 0.0
2018-Feb-06 18:59N 44°44' E 037°47'0 0.0
2018-Feb-06 18:29N 44°44' E 037°47'0 0.0
2018-Feb-06 17:59N 44°44' E 037°47'0 0.0
2018-Feb-06 17:29N 44°44' E 037°47'0 0.0
2018-Feb-06 16:59N 44°44' E 037°47'0 0.0
2018-Feb-06 16:29N 44°44' E 037°47'0 0.0
2018-Feb-06 15:59N 44°44' E 037°47'0 0.0
2018-Feb-06 15:26N 44°44' E 037°47'0 0.0
2018-Feb-06 14:59N 44°44' E 037°47'0 0.0
2018-Feb-06 14:29N 44°44' E 037°47'0 0.0
2018-Feb-06 13:59N 44°44' E 037°47'0 0.0
2018-Feb-06 13:29N 44°44' E 037°47'0 0.0
2018-Feb-06 12:59N 44°44' E 037°47'0 0.0
2018-Feb-06 12:29N 44°44' E 037°47'0 0.0
2018-Feb-06 11:59N 44°44' E 037°47'0 0.8
2018-Feb-06 11:30N 44°43' E 037°47'3 6.7
2018-Feb-06 11:00N 44°41' E 037°50'4 7.1
2018-Feb-06 10:30N 44°38' E 037°52'4 7.2
2018-Feb-06 10:00N 44°35' E 037°48'4 7.3
2018-Feb-06 09:30N 44°33' E 037°44'4 7.1
2018-Feb-06 09:00N 44°31' E 037°40'4 7.1
2018-Feb-06 08:28N 44°29' E 037°35'  
2018-Feb-02 18:33N 40°52' E 029°02'0 6.1
2018-Feb-02 18:30N 40°51' E 029°02'3 6.2
2018-Feb-02 18:00N 40°49' E 029°05'3 5.5
2018-Feb-02 17:30N 40°50' E 029°09'3 6.7
2018-Feb-02 17:00N 40°52' E 029°11'0 0.4
2018-Feb-02 16:26N 40°53' E 029°11'0 0.0
2018-Feb-02 15:19N 40°53' E 029°11'0 0.0
2018-Feb-02 14:25N 40°53' E 029°11'0 0.0
2018-Feb-02 13:43N 40°53' E 029°11'0 0.0
2018-Feb-02 13:25N 40°53' E 029°11'0 0.0
2018-Feb-02 12:37N 40°53' E 029°11'0 0.1
2018-Feb-02 12:25N 40°53' E 029°11'0 0.0
2018-Feb-02 11:49N 40°53' E 029°11'0 0.0
2018-Feb-02 11:25N 40°53' E 029°11'0 0.0
2018-Feb-02 10:49N 40°53' E 029°11'0 0.0
2018-Feb-02 10:25N 40°53' E 029°11'0 0.0
2018-Feb-02 09:55N 40°53' E 029°11'0 0.0
2018-Feb-02 09:13N 40°53' E 029°11'0 0.0
2018-Feb-02 08:55N 40°53' E 029°11'0 0.0
2018-Feb-02 08:15N 40°53' E 029°11'0 0.0
2018-Feb-02 07:57N 40°53' E 029°11'0 0.0
2018-Feb-02 07:21N 40°53' E 029°11'0 0.0
2018-Feb-02 06:34N 40°53' E 029°11'0 0.0
2018-Feb-02 06:10N 40°53' E 029°11'0 0.0
2018-Feb-02 05:46N 40°53' E 029°11'0 0.0
2018-Feb-02 05:28N 40°53' E 029°11'0 0.0
2018-Feb-02 04:58N 40°53' E 029°11'0 0.0
2018-Feb-02 04:28N 40°53' E 029°11'0 0.0
2018-Feb-02 03:52N 40°53' E 029°11'0 0.0
2018-Feb-02 03:28N 40°53' E 029°11'0 0.0
2018-Feb-02 02:58N 40°53' E 029°11'0 0.0
2018-Feb-02 02:28N 40°53' E 029°11'0 0.0
2018-Feb-02 01:40N 40°53' E 029°11'0 0.1
2018-Feb-02 01:28N 40°53' E 029°11'0 0.0
2018-Feb-02 00:52N 40°53' E 029°11'0 0.7
2018-Feb-02 00:30N 40°52' E 029°11'3 5.5
2018-Feb-02 00:00N 40°50' E 029°11'4 6.8
2018-Feb-01 23:30N 40°47' E 029°14'4 7.4
2018-Feb-01 22:59N 40°45' E 029°19'  
2018-Jan-30 13:29N 40°43' E 029°21'4 7.2
2018-Jan-30 12:59N 40°45' E 029°16'3 7.0
2018-Jan-30 12:30N 40°46' E 029°12'4 6.6
2018-Jan-30 11:55N 40°48' E 029°08'4 5.6
2018-Jan-30 11:15N 40°49' E 029°03'4 5.7
2018-Jan-30 10:30N 40°51' E 028°58'197 5.8
2018-Jan-29 00:36N 44°06' E 029°39'3 6.6
2018-Jan-29 00:12N 44°09' E 029°39'1 6.6
2018-Jan-29 00:00N 44°10' E 029°39'3 6.5
2018-Jan-28 23:30N 44°13' E 029°40'5 6.4
2018-Jan-28 22:43N 44°18' E 029°42'3 6.5
2018-Jan-28 22:19N 44°21' E 029°42'2 6.5
2018-Jan-28 21:57N 44°23' E 029°43'  

Dump ship's entire track history